Αναφορές METAR από Ελληνικά Αεροδρόμια

Σε αυτή τη σελίδα, μπορείτε να παρακολουθείτε τις αναφορές METAR που προέρχονται από τα κυριότερα αεροδρόμια της Ελλάδας. Το περιεχόμενο αποκωδικοποιείται, οπτικοποιείται και γίνεται κατανοητό από τον καθένα με τη χρήση του όμορφου δίγλωσσου γραφικού περιβάλλοντος του meteothes.gr!

Η αρχική κωδικοποιημένη αναφορά, συμπεριλαμβάνεται επίσης στο κάτω μέρος. Σε όποια καθεστερεί η ενημέρωση, το προειδοποιητικό μήνυμα "Μη ενημερωμένο METAR!" εμφανίζεται στο πάνω μέρος της με κόκκινα γράμματα.

Εχουν προστεθεί επίσης δύο αεροδρόμια από γειτονικές χώρες, την Οχρίδα(ΠΓΔΜ) και την Σόφια(Βουλγαρία) για να ελέγχουμε την εξέλιξη των ψυχρών εισβολών από τα Βόρεια!

LGTS - Thessaloniki/Makedonia-Elev 7m
Απόσταση από meteothes.gr: Ν 13km
Ενημερώθηκε: 06/07/2020 02:50
Μερικώς νεφελώδης
Μερικώς νεφελώδης
 Ανεμος από ΔΝΔ
Ανεμος: ΔΝΔ 26 km/h
Θερμοκρασία: 22°C
Σημ. Δρόσου: 19°C
Υγρασία: 83%
Βαρόμετρο: 1009 hPa
Νέφωση: Μερικώς νεφελώδης
Ορατότητα: 10 km
Λεπτομέρειες Νεφών: Μερικώς νεφελώδης 914 m
2020/07/05 23:50 LGTS 052350Z 25014KT 9999 SCT030 22/19 Q1009 NOSIG
LGAV - Athens/Elef. Venizelos-Elev 94m
Απόσταση από meteothes.gr: ΝΝΑ 312km
Ενημερώθηκε: 06/07/2020 02:50
Διάσπαρτα Nέφη
Διάσπαρτα Nέφη
 Ανεμος από ΒΒΔ
Ανεμος: ΒΒΔ 11 km/h
Θερμοκρασία: 26°C
Σημ. Δρόσου: 17°C
Υγρασία: 58%
Βαρόμετρο: 1005 hPa
Νέφωση: Διάσπαρτα Nέφη
Ορατότητα: 10 km
Λεπτομέρειες Νεφών: Διάσπαρτα Nέφη 914 m
2020/07/05 23:50 LGAV 052350Z 34006KT 310V020 9999 FEW030 26/17 Q1005 NOSIG
 
LGAL - Alexandroupolis-Elev 3m
Απόσταση από meteothes.gr: Α 251km
Ενημερώθηκε: 05/07/2020 22:20
ΜΗ Ενημερωμένο METAR!
Διάσπαρτα Nέφη
Διάσπαρτα Nέφη
 Ανεμος από ΑΒΑ
Ανεμος: ΑΒΑ 17 km/h
Θερμοκρασία: 28°C
Δείκτη Δυσφορίας: 29°C
Σημ. Δρόσου: 18°C
Υγρασία: 55%
Βαρόμετρο: 1007 hPa
Νέφωση: Διάσπαρτα Nέφη
Ορατότητα: 10 km
Λεπτομέρειες Νεφών: Διάσπαρτα Nέφη 914 m
2020/07/05 19:20 LGAL 051920Z 06009KT 9999 FEW030 28/18 Q1007
LGKV - Kavala/Crysoupolis-Elev 5m
Απόσταση από meteothes.gr: ΑΒΑ 144km
Ενημερώθηκε: 06/07/2020 02:50
Αίθριος
Αίθριος
 Ανεμος από ΒΑ
Ανεμος: ΒΑ 13 km/h
Θερμοκρασία: 25°C
Σημ. Δρόσου: 19°C
Υγρασία: 69%
Βαρόμετρο: 1006 hPa
Συνθήκες: Αίθριος
Ορατότητα: πάνω από 10 km
2020/07/05 23:50 LGKV 052350Z 05007KT CAVOK 25/19 Q1006
 
LGSK - Skiathos Island-Elev 15m
Απόσταση από meteothes.gr: ΝΝΑ 168km
Ενημερώθηκε: 05/07/2020 19:50
ΜΗ Ενημερωμένο METAR!
Μερικώς νεφελώδης
Μερικώς νεφελώδης
 Ανεμος από ΒΒΔ
Ανεμος: ΒΒΔ 9 km/h
Θερμοκρασία: 28°C
Δείκτη Δυσφορίας: 29°C
Σημ. Δρόσου: 20°C
Υγρασία: 62%
Βαρόμετρο: 1007 hPa
Νέφωση: Μερικώς νεφελώδης
Ορατότητα: 10 km
Λεπτομέρειες Νεφών: Διάσπαρτα Nέφη 610 m
Μερικώς νεφελώδης 1067 m
2020/07/05 16:50 LGSK 051650Z 34005KT 9999 FEW020 SCT035 28/20 Q1007
LGLM - Limnos Island-Elev 5m
Απόσταση από meteothes.gr: ΑΝΑ 210km
Ενημερώθηκε: 06/07/2020 02:50
Αίθριος
Αίθριος
 Ανεμος από ΒΑ
Ανεμος: ΒΑ 26 km/h, Ριπή: 44 km/h
Θερμοκρασία: 25°C
Σημ. Δρόσου: 17°C
Υγρασία: 61%
Βαρόμετρο: 1005 hPa
Συνθήκες: Αίθριος
Ορατότητα: πάνω από 10 km
2020/07/05 23:50 LGLM 052350Z 04014G24KT CAVOK 25/17 Q1005
 
LGMT - Mitilini Island-Elev 17m
Απόσταση από meteothes.gr: ΑΝΑ 358km
Ενημερώθηκε: 06/07/2020 02:50
Αίθριος
Αίθριος
 Ανεμος από άπνοια
Ανεμος: άπνοια
Θερμοκρασία: 28°C
Δείκτη Δυσφορίας: 30°C
Σημ. Δρόσου: 21°C
Υγρασία: 66%
Βαρόμετρο: 1003 hPa
Συνθήκες: Αίθριος
Ορατότητα: πάνω από 10 km
2020/07/05 23:50 LGMT 052350Z 00000KT CAVOK 28/21 Q1003
LGSY - Skiros Island-Elev 15m
Απόσταση από meteothes.gr: ΝΑ 227km
Ενημερώθηκε: 05/07/2020 20:50
ΜΗ Ενημερωμένο METAR!
Αίθριος
Αίθριος
 Ανεμος από ΒΔ
Ανεμος: ΒΔ 24 km/h
Θερμοκρασία: 26°C
Σημ. Δρόσου: 22°C
Υγρασία: 79%
Βαρόμετρο: 1006 hPa
Συνθήκες: Αίθριος
Ορατότητα: πάνω από 10 km
2020/07/05 17:50 LGSY 051750Z 31013KT CAVOK 26/22 Q1006 RMK FEW180 BLU
 
LGKZ - Kozani-Elev 628m
Απόσταση από meteothes.gr: ΔΝΔ 102km
Ενημερώθηκε: 05/07/2020 14:50
ΜΗ Ενημερωμένο METAR!
Ασθενής βροχή
Ασθενής βροχή
 Ανεμος από ΒΒΑ
Ανεμος: ΒΒΑ 13 km/h
Θερμοκρασία: 27°C
Δείκτη Δυσφορίας: 27°C
Σημ. Δρόσου: 13°C
Υγρασία: 42%
Βαρόμετρο: 1012 hPa
Συνθήκες: Ασθενής βροχή
2020/07/05 11:50 LGKZ 051150Z AUTO 02007KT 280V050 //// -RA ////// 27/13 Q1012 RE//
LGIO - Ioannina-Elev 476m
Απόσταση από meteothes.gr: ΔΝΔ 209km
Ενημερώθηκε: 06/07/2020 02:50

 Ανεμος από μεταβλητός
Ανεμος: μεταβλητός 6 km/h
Θερμοκρασία: 16°C
Σημ. Δρόσου: 16°C
Υγρασία: 100%
Βαρόμετρο: 1010 hPa
2020/07/05 23:50 LGIO 052350Z AUTO VRB03KT //// // ////// 16/16 Q1010 RE//
 
LGZA - Zakinthos-Elev 3m
Απόσταση από meteothes.gr: ΝΝΔ 367km
Ενημερώθηκε: 05/07/2020 21:50
ΜΗ Ενημερωμένο METAR!
Μερικώς νεφελώδης
Μερικώς νεφελώδης
 Ανεμος από άπνοια
Ανεμος: άπνοια
Θερμοκρασία: 26°C
Σημ. Δρόσου: 21°C
Υγρασία: 74%
Βαρόμετρο: 1006 hPa
Νέφωση: Μερικώς νεφελώδης
Ορατότητα: 10 km
Λεπτομέρειες Νεφών: Διάσπαρτα Nέφη 549 m
Μερικώς νεφελώδης 2134 m
2020/07/05 18:50 LGZA 051850Z 00000KT 9999 FEW018 SCT070 26/21 Q1006
LGKR - Corfu Island-Elev 2m
Απόσταση από meteothes.gr: ΔΝΔ 282km
Ενημερώθηκε: 06/07/2020 02:50
Μερικώς νεφελώδης
Μερικώς νεφελώδης
 Ανεμος από άπνοια
Ανεμος: άπνοια
Θερμοκρασία: 23°C
Σημ. Δρόσου: 17°C
Υγρασία: 69%
Βαρόμετρο: 1006 hPa
Νέφωση: Μερικώς νεφελώδης
Ορατότητα: 10 km
Λεπτομέρειες Νεφών: Μερικώς νεφελώδης 762 m
Μερικώς νεφελώδης 2438 m
2020/07/05 23:50 LGKR 052350Z 00000KT 9999 SCT025 SCT080 23/17 Q1006 NOSIG
 
LGSO - Syros Island-Elev 72m
Απόσταση από meteothes.gr: ΝΝΑ 397km
Ενημερώθηκε: 06/07/2020 02:50

 Ανεμος από ΒΒΔ
Ανεμος: ΒΒΔ 7 km/h
Θερμοκρασία: 26°C
Σημ. Δρόσου: 18°C
Υγρασία: 61%
Βαρόμετρο: 1003 hPa
2020/07/05 23:50 LGSO 052350Z AUTO 33004KT 290V020 //// // ////// 26/18 Q1003 RE//
LGMK - Mikonos Island-Elev 123m
Απόσταση από meteothes.gr: ΝΝΑ 412km
Ενημερώθηκε: 06/07/2020 02:50
Αίθριος
Αίθριος
 Ανεμος από μεταβλητός
Ανεμος: μεταβλητός 0 km/h
Θερμοκρασία: 25°C
Σημ. Δρόσου: 19°C
Υγρασία: 69%
Βαρόμετρο: 1003 hPa
Συνθήκες: Αίθριος
Ορατότητα: πάνω από 10 km
2020/07/05 23:50 LGMK 052350Z /////KT CAVOK 25/19 Q1003
 
LGSR - Santorini Island-Elev 40m
Απόσταση από meteothes.gr: ΝΝΑ 520km
Ενημερώθηκε: 06/07/2020 02:50
Αίθριος
Αίθριος
 Ανεμος από ΔΒΔ
Ανεμος: ΔΒΔ 11 km/h
Θερμοκρασία: 26°C
Σημ. Δρόσου: 20°C
Υγρασία: 70%
Βαρόμετρο: 1003 hPa
Συνθήκες: Αίθριος
Ορατότητα: πάνω από 10 km
2020/07/05 23:50 LGSR 052350Z 30006KT CAVOK 26/20 Q1003
LGKL - Kalamata-Elev 8m
Απόσταση από meteothes.gr: Ν 405km
Ενημερώθηκε: 06/07/2020 02:50
Αίθριος
Αίθριος
 Ανεμος από άπνοια
Ανεμος: άπνοια
Θερμοκρασία: 20°C
Σημ. Δρόσου: 18°C
Υγρασία: 88%
Βαρόμετρο: 1005 hPa
Συνθήκες: Αίθριος
Ορατότητα: πάνω από 10 km
2020/07/05 23:50 LGKL 052350Z 00000KT CAVOK 20/18 Q1005
 
LGIR - Iraklion/Crete-Elev 5m
Απόσταση από meteothes.gr: ΝΝΑ 622km
Ενημερώθηκε: 06/07/2020 02:50
Αίθριος
Αίθριος
 Ανεμος από Δ
Ανεμος: Δ 11 km/h
Θερμοκρασία: 25°C
Σημ. Δρόσου: 20°C
Υγρασία: 74%
Βαρόμετρο: 1005 hPa
Συνθήκες: Αίθριος
Ορατότητα: πάνω από 10 km
2020/07/05 23:50 LGIR 052350Z 28006KT CAVOK 25/20 Q1005 NOSIG
LGRP - Rhodes-Elev 5m
Απόσταση από meteothes.gr: ΝΑ 649km
Ενημερώθηκε: 06/07/2020 02:50
Διάσπαρτα Nέφη
Διάσπαρτα Nέφη
 Ανεμος από ΔΝΔ
Ανεμος: ΔΝΔ 19 km/h
Θερμοκρασία: 24°C
Σημ. Δρόσου: 23°C
Υγρασία: 94%
Βαρόμετρο: 1000 hPa
Νέφωση: Διάσπαρτα Nέφη
Ορατότητα: 10 km
Λεπτομέρειες Νεφών: Διάσπαρτα Nέφη 366 m
2020/07/05 23:50 LGRP 052350Z 24010KT 9999 FEW012 24/23 Q1000 NOSIG
 
LWOH - Ohrid/FYROM-Elev 761m
Απόσταση από meteothes.gr: ΔΒΔ 188km
Ενημερώθηκε: 05/07/2020 21:00
ΜΗ Ενημερωμένο METAR!
Κυρίως νεφελώδης
Κυρίως νεφελώδης
 Ανεμος από ΑΝΑ
Ανεμος: ΑΝΑ 22 km/h
Θερμοκρασία: 22°C
Σημ. Δρόσου: 14°C
Υγρασία: 61%
Βαρόμετρο: 1013 hPa
Νέφωση: Κυρίως νεφελώδης
Ορατότητα: 10 km
Λεπτομέρειες Νεφών: Μερικώς νεφελώδης 1219 m
Κυρίως νεφελώδης 1372 m
2020/07/05 18:00 LWOH 051800Z 11012KT 9999 SCT040CB BKN045 22/14 Q1013
LBSF - Sofia/Bulgaria-Elev 595m
Απόσταση από meteothes.gr: Β 227km
Ενημερώθηκε: 06/07/2020 03:00
Μερικώς νεφελώδης
Μερικώς νεφελώδης
 Ανεμος από ΑΒΑ
Ανεμος: ΑΒΑ 2 km/h
Θερμοκρασία: 18°C
Σημ. Δρόσου: 17°C
Υγρασία: 94%
Βαρόμετρο: 1013 hPa
Νέφωση: Μερικώς νεφελώδης
Ορατότητα: 8 km
2020/07/06 00:00 LBSF 060000Z 06001KT 8000 NSC 18/17 Q1013 NOSIG

(*) Μερικές αναφορές παρουσιάζουν λιγότερα στοιχεία γιατί οι αρχικές είναι ελλιπείς ή έχουν λάθος μορφοποίηση!